sensor_id;sensor_type;location;lat;lon;timestamp;P1;P4;P2;P0;N10;N4;N25;N1;N05;TS
65057;SPS30;51644;51.068;5.860;2023-02-25T00:00:09;4.19;4.08;3.50;2.63;21.12;21.09;20.94;20.16;16.79;0.70
65057;SPS30;51644;51.068;5.860;2023-02-25T00:01:15;3.88;3.78;3.27;2.50;20.07;20.04;19.91;19.22;16.08;0.70
65057;SPS30;51644;51.068;5.860;2023-02-25T00:02:13;3.53;3.44;2.99;2.30;18.44;18.42;18.30;17.69;14.82;0.69
65057;SPS30;51644;51.068;5.860;2023-02-25T00:03:12;3.78;3.67;3.16;2.39;19.21;19.19;19.05;18.37;15.32;0.70
65057;SPS30;51644;51.068;5.860;2023-02-25T00:04:12;3.68;3.58;3.09;2.35;18.90;18.87;18.74;18.09;15.11;0.69
65057;SPS30;51644;51.068;5.860;2023-02-25T00:05:11;3.16;3.07;2.66;2.03;16.30;16.28;16.17;15.61;13.06;0.69
65057;SPS30;51644;51.068;5.860;2023-02-25T00:06:10;3.04;2.96;2.56;1.95;15.69;15.67;15.57;15.03;12.58;0.70
65057;SPS30;51644;51.068;5.860;2023-02-25T00:07:11;3.34;3.25;2.82;2.17;17.40;17.38;17.27;16.69;13.98;0.71
65057;SPS30;51644;51.068;5.860;2023-02-25T00:08:10;3.45;3.36;2.92;2.24;18.01;17.98;17.87;17.27;14.47;0.70
65057;SPS30;51644;51.068;5.860;2023-02-25T00:09:08;3.52;3.43;3.01;2.35;18.84;18.82;18.71;18.13;15.25;0.69
65057;SPS30;51644;51.068;5.860;2023-02-25T00:10:09;3.47;3.39;2.98;2.35;18.81;18.79;18.68;18.13;15.28;0.69
65057;SPS30;51644;51.068;5.860;2023-02-25T00:11:09;3.27;3.19;2.80;2.18;17.52;17.50;17.40;16.86;14.18;0.71
65057;SPS30;51644;51.068;5.860;2023-02-25T00:12:10;3.32;3.24;2.82;2.18;17.51;17.49;17.38;16.81;14.11;0.71
65057;SPS30;51644;51.068;5.860;2023-02-25T00:13:08;2.77;2.70;2.38;1.87;15.00;14.98;14.90;14.45;12.18;0.69
65057;SPS30;51644;51.068;5.860;2023-02-25T00:14:08;3.09;3.03;2.69;2.16;17.29;17.27;17.18;16.72;14.16;0.68
65057;SPS30;51644;51.068;5.860;2023-02-25T00:15:07;3.49;3.41;3.04;2.44;19.53;19.50;19.40;18.89;16.00;0.67
65057;SPS30;51644;51.068;5.860;2023-02-25T00:16:07;3.62;3.54;3.14;2.50;20.03;20.01;19.90;19.35;16.36;0.68
65057;SPS30;51644;51.068;5.860;2023-02-25T00:17:07;3.66;3.57;3.14;2.46;19.70;19.68;19.56;18.97;15.97;0.68
65057;SPS30;51644;51.068;5.860;2023-02-25T00:18:06;3.54;3.45;3.00;2.30;18.48;18.46;18.34;17.73;14.85;0.69
65057;SPS30;51644;51.068;5.860;2023-02-25T00:19:04;3.77;3.66;3.14;2.37;19.00;18.98;18.84;18.15;15.12;0.70
65057;SPS30;51644;51.068;5.860;2023-02-25T00:20:03;3.57;3.48;3.01;2.30;18.47;18.45;18.32;17.69;14.80;0.70
65057;SPS30;51644;51.068;5.860;2023-02-25T00:21:06;3.63;3.54;3.09;2.39;19.18;19.15;19.03;18.42;15.46;0.70
65057;SPS30;51644;51.068;5.860;2023-02-25T00:22:12;3.84;3.73;3.20;2.41;19.37;19.34;19.20;18.50;15.41;0.73
65057;SPS30;51644;51.068;5.860;2023-02-25T00:23:11;3.47;3.37;2.89;2.17;17.39;17.37;17.24;16.59;13.81;0.73
65057;SPS30;51644;51.068;5.860;2023-02-25T00:24:09;3.60;3.50;3.01;2.28;18.30;18.28;18.15;17.50;14.59;0.72
65057;SPS30;51644;51.068;5.860;2023-02-25T00:25:08;2.84;2.76;2.39;1.82;14.60;14.58;14.48;13.98;11.68;0.71
65057;SPS30;51644;51.068;5.860;2023-02-25T00:26:07;2.84;2.76;2.39;1.82;14.61;14.59;14.49;13.99;11.69;0.71
65057;SPS30;51644;51.068;5.860;2023-02-25T00:27:06;3.47;3.38;2.94;2.26;18.14;18.12;18.00;17.40;14.58;0.70
65057;SPS30;51644;51.068;5.860;2023-02-25T00:28:04;3.64;3.55;3.09;2.39;19.17;19.14;19.02;18.40;15.43;0.70
65057;SPS30;51644;51.068;5.860;2023-02-25T00:29:03;3.33;3.24;2.81;2.15;17.29;17.27;17.15;16.57;13.87;0.71
65057;SPS30;51644;51.068;5.860;2023-02-25T00:30:03;3.64;3.54;3.05;2.31;18.53;18.51;18.38;17.72;14.79;0.73
65057;SPS30;51644;51.068;5.860;2023-02-25T00:31:08;3.58;3.48;3.00;2.28;18.27;18.25;18.12;17.48;14.59;0.73
65057;SPS30;51644;51.068;5.860;2023-02-25T00:32:08;3.32;3.23;2.79;2.12;17.03;17.01;16.89;16.29;13.61;0.72
65057;SPS30;51644;51.068;5.860;2023-02-25T00:33:24;3.87;3.75;3.20;2.38;19.13;19.10;18.96;18.22;15.13;0.73
65057;SPS30;51644;51.068;5.860;2023-02-25T00:34:23;3.35;3.26;2.77;2.05;16.44;16.41;16.28;15.64;12.96;0.73
65057;SPS30;51644;51.068;5.860;2023-02-25T00:35:22;3.55;3.44;2.91;2.13;17.13;17.10;16.96;16.26;13.44;0.73
65057;SPS30;51644;51.068;5.860;2023-02-25T00:36:21;3.70;3.59;3.01;2.18;17.54;17.51;17.36;16.61;13.68;0.74
65057;SPS30;51644;51.068;5.860;2023-02-25T00:37:22;3.45;3.35;2.83;2.08;16.71;16.68;16.55;15.87;13.12;0.74
65057;SPS30;51644;51.068;5.860;2023-02-25T00:38:31;4.07;3.95;3.35;2.47;19.84;19.81;19.65;18.85;15.61;0.74
65057;SPS30;51644;51.068;5.860;2023-02-25T00:39:30;4.17;4.05;3.45;2.55;20.49;20.46;20.30;19.49;16.16;0.75
65057;SPS30;51644;51.068;5.860;2023-02-25T00:40:45;3.69;3.57;3.02;2.20;17.71;17.69;17.54;16.80;13.88;0.75
65057;SPS30;51644;51.068;5.860;2023-02-25T00:41:44;4.17;4.04;3.41;2.47;19.89;19.86;19.69;18.84;15.54;0.75
65057;SPS30;51644;51.068;5.860;2023-02-25T00:42:42;3.08;2.99;2.53;1.86;14.96;14.94;14.82;14.21;11.76;0.74
65057;SPS30;51644;51.068;5.860;2023-02-25T00:43:42;3.63;3.52;2.98;2.19;17.64;17.61;17.47;16.76;13.87;0.75
65057;SPS30;51644;51.068;5.860;2023-02-25T00:44:46;3.72;3.61;3.08;2.29;18.38;18.35;18.21;17.50;14.53;0.74
65057;SPS30;51644;51.068;5.860;2023-02-25T00:45:46;4.14;4.02;3.42;2.53;20.31;20.28;20.12;19.32;16.01;0.75
65057;SPS30;51644;51.068;5.860;2023-02-25T00:46:44;3.55;3.45;2.94;2.20;17.65;17.62;17.49;16.82;13.98;0.74
65057;SPS30;51644;51.068;5.860;2023-02-25T00:47:43;2.99;2.91;2.49;1.86;14.94;14.91;14.80;14.24;11.85;0.74
65057;SPS30;51644;51.068;5.860;2023-02-25T00:48:41;3.00;2.92;2.51;1.90;15.23;15.21;15.10;14.56;12.14;0.74
65057;SPS30;51644;51.068;5.860;2023-02-25T00:49:40;3.99;3.88;3.32;2.48;19.92;19.89;19.74;18.99;15.79;0.74
65057;SPS30;51644;51.068;5.860;2023-02-25T00:50:40;3.03;2.94;2.51;1.88;15.07;15.05;14.94;14.36;11.94;0.73
65057;SPS30;51644;51.068;5.860;2023-02-25T00:51:38;3.35;3.25;2.80;2.12;17.00;16.98;16.86;16.25;13.56;0.72
65057;SPS30;51644;51.068;5.860;2023-02-25T00:52:37;2.49;2.43;2.11;1.63;13.08;13.06;12.98;12.55;10.52;0.71
65057;SPS30;51644;51.068;5.860;2023-02-25T00:53:36;3.11;3.03;2.61;1.98;15.93;15.91;15.80;15.24;12.73;0.71
65057;SPS30;51644;51.068;5.860;2023-02-25T00:54:35;3.18;3.09;2.66;2.02;16.21;16.19;16.08;15.50;12.94;0.71
65057;SPS30;51644;51.068;5.860;2023-02-25T00:55:34;3.36;3.27;2.82;2.14;17.22;17.20;17.08;16.48;13.77;0.71
65057;SPS30;51644;51.068;5.860;2023-02-25T00:56:33;2.55;2.48;2.12;1.60;12.84;12.82;12.73;12.26;10.21;0.71
65057;SPS30;51644;51.068;5.860;2023-02-25T00:57:34;3.43;3.33;2.84;2.11;16.93;16.91;16.78;16.12;13.37;0.72
65057;SPS30;51644;51.068;5.860;2023-02-25T00:58:34;3.84;3.72;3.12;2.25;18.06;18.03;17.87;17.08;14.05;0.73
65057;SPS30;51644;51.068;5.860;2023-02-25T00:59:36;2.98;2.89;2.41;1.73;13.91;13.88;13.76;13.14;10.79;0.73
65057;SPS30;51644;51.068;5.860;2023-02-25T01:00:34;3.40;3.29;2.72;1.91;15.38;15.36;15.21;14.47;11.81;0.74
65057;SPS30;51644;51.068;5.860;2023-02-25T01:01:33;3.39;3.27;2.69;1.87;15.04;15.02;14.86;14.11;11.47;0.74
65057;SPS30;51644;51.068;5.860;2023-02-25T01:02:31;3.62;3.50;2.91;2.06;16.57;16.54;16.38;15.61;12.77;0.73
65057;SPS30;51644;51.068;5.860;2023-02-25T01:03:30;3.45;3.35;2.80;2.02;16.23;16.21;16.07;15.35;12.63;0.73
65057;SPS30;51644;51.068;5.860;2023-02-25T01:04:29;3.60;3.49;2.93;2.11;17.01;16.98;16.83;16.09;13.25;0.74
65057;SPS30;51644;51.068;5.860;2023-02-25T01:05:27;3.79;3.67;3.06;2.19;17.60;17.57;17.41;16.61;13.62;0.74
65057;SPS30;51644;51.068;5.860;2023-02-25T01:06:26;3.86;3.73;3.10;2.19;17.60;17.57;17.40;16.57;13.55;0.75
65057;SPS30;51644;51.068;5.860;2023-02-25T01:07:26;3.63;3.52;2.94;2.10;16.86;16.83;16.68;15.92;13.06;0.74
65057;SPS30;51644;51.068;5.860;2023-02-25T01:08:25;3.83;3.71;3.10;2.22;17.84;17.81;17.65;16.85;13.83;0.74
65057;SPS30;51644;51.068;5.860;2023-02-25T01:09:24;3.29;3.19;2.70;1.97;15.83;15.81;15.68;15.02;12.41;0.73
65057;SPS30;51644;51.068;5.860;2023-02-25T01:10:23;3.55;3.45;2.92;2.14;17.23;17.21;17.07;16.37;13.54;0.73
65057;SPS30;51644;51.068;5.860;2023-02-25T01:11:23;3.28;3.18;2.69;1.98;15.91;15.89;15.76;15.12;12.51;0.74
65057;SPS30;51644;51.068;5.860;2023-02-25T01:12:26;3.27;3.17;2.67;1.94;15.60;15.58;15.45;14.79;12.20;0.75
65057;SPS30;51644;51.068;5.860;2023-02-25T01:13:24;3.29;3.19;2.68;1.95;15.66;15.63;15.50;14.83;12.23;0.74
65057;SPS30;51644;51.068;5.860;2023-02-25T01:14:24;2.79;2.70;2.27;1.64;13.21;13.19;13.07;12.50;10.30;0.75
65057;SPS30;51644;51.068;5.860;2023-02-25T01:15:23;3.16;3.06;2.55;1.82;14.65;14.62;14.49;13.82;11.34;0.76
65057;SPS30;51644;51.068;5.860;2023-02-25T01:16:24;3.67;3.55;2.93;2.05;16.47;16.44;16.28;15.47;12.61;0.78
65057;SPS30;51644;51.068;5.860;2023-02-25T01:17:24;3.34;3.22;2.66;1.85;14.92;14.90;14.75;14.01;11.41;0.77
65057;SPS30;51644;51.068;5.860;2023-02-25T01:18:23;3.25;3.14;2.59;1.80;14.50;14.48;14.33;13.61;11.08;0.77
65057;SPS30;51644;51.068;5.860;2023-02-25T01:19:23;3.76;3.63;2.98;2.06;16.60;16.57;16.40;15.55;12.63;0.77
65057;SPS30;51644;51.068;5.860;2023-02-25T01:20:23;3.58;3.46;2.84;1.96;15.80;15.77;15.61;14.80;12.02;0.77
65057;SPS30;51644;51.068;5.860;2023-02-25T01:21:24;3.81;3.68;3.04;2.12;17.09;17.06;16.90;16.06;13.09;0.76
65057;SPS30;51644;51.068;5.860;2023-02-25T01:22:25;3.32;3.21;2.64;1.84;14.79;14.76;14.62;13.88;11.29;0.78
65057;SPS30;51644;51.068;5.860;2023-02-25T01:23:24;4.12;3.98;3.24;2.21;17.81;17.77;17.58;16.63;13.44;0.79
65057;SPS30;51644;51.068;5.860;2023-02-25T01:24:27;3.06;2.95;2.40;1.64;13.20;13.17;13.03;12.32;9.96;0.78
65057;SPS30;51644;51.068;5.860;2023-02-25T01:25:28;3.37;3.25;2.66;1.81;14.59;14.57;14.41;13.63;11.02;0.78
65057;SPS30;51644;51.068;5.860;2023-02-25T01:26:27;3.62;3.49;2.85;1.95;15.68;15.65;15.49;14.65;11.85;0.78
65057;SPS30;51644;51.068;5.860;2023-02-25T01:27:27;3.49;3.36;2.74;1.87;15.06;15.03;14.87;14.06;11.37;0.78
65057;SPS30;51644;51.068;5.860;2023-02-25T01:28:26;2.76;2.66;2.19;1.51;12.15;12.13;12.01;11.38;9.24;0.77
65057;SPS30;51644;51.068;5.860;2023-02-25T01:29:29;3.27;3.16;2.59;1.78;14.36;14.33;14.19;13.44;10.90;0.77
65057;SPS30;51644;51.068;5.860;2023-02-25T01:30:31;3.02;2.91;2.36;1.59;12.82;12.79;12.65;11.93;9.61;0.79
65057;SPS30;51644;51.068;5.860;2023-02-25T01:31:30;3.49;3.36;2.71;1.80;14.47;14.44;14.27;13.43;10.76;0.79
65057;SPS30;51644;51.068;5.860;2023-02-25T01:32:28;3.53;3.40;2.76;1.86;14.97;14.94;14.77;13.94;11.22;0.78
65057;SPS30;51644;51.068;5.860;2023-02-25T01:33:27;3.41;3.29;2.68;1.82;14.67;14.64;14.49;13.69;11.06;0.77
65057;SPS30;51644;51.068;5.860;2023-02-25T01:34:25;3.14;3.03;2.48;1.70;13.67;13.65;13.50;12.78;10.36;0.76
65057;SPS30;51644;51.068;5.860;2023-02-25T01:35:25;2.84;2.74;2.24;1.53;12.35;12.33;12.20;11.54;9.34;0.76
65057;SPS30;51644;51.068;5.860;2023-02-25T01:36:24;2.86;2.76;2.28;1.58;12.76;12.74;12.61;11.97;9.75;0.77
65057;SPS30;51644;51.068;5.860;2023-02-25T01:37:23;3.21;3.10;2.57;1.81;14.56;14.53;14.39;13.69;11.18;0.76
65057;SPS30;51644;51.068;5.860;2023-02-25T01:38:22;3.13;3.02;2.50;1.75;14.10;14.07;13.94;13.25;10.81;0.76
65057;SPS30;51644;51.068;5.860;2023-02-25T01:39:21;2.86;2.77;2.29;1.61;12.95;12.93;12.81;12.18;9.95;0.75
65057;SPS30;51644;51.068;5.860;2023-02-25T01:40:23;2.52;2.43;2.00;1.40;11.26;11.24;11.13;10.57;8.61;0.75
65057;SPS30;51644;51.068;5.860;2023-02-25T01:41:24;2.77;2.68;2.21;1.55;12.50;12.47;12.35;11.75;9.58;0.74
65057;SPS30;51644;51.068;5.860;2023-02-25T01:42:24;3.40;3.29;2.71;1.89;15.23;15.20;15.05;14.30;11.65;0.75
65057;SPS30;51644;51.068;5.860;2023-02-25T01:43:24;3.30;3.18;2.61;1.80;14.53;14.50;14.35;13.61;11.05;0.76
65057;SPS30;51644;51.068;5.860;2023-02-25T01:44:23;3.40;3.27;2.66;1.79;14.44;14.41;14.25;13.44;10.83;0.78
65057;SPS30;51644;51.068;5.860;2023-02-25T01:45:28;3.05;2.94;2.37;1.58;12.74;12.72;12.57;11.83;9.49;0.79
65057;SPS30;51644;51.068;5.860;2023-02-25T01:46:30;3.03;2.92;2.34;1.55;12.46;12.43;12.29;11.54;9.23;0.80
65057;SPS30;51644;51.068;5.860;2023-02-25T01:47:29;4.04;3.88;3.10;2.01;16.25;16.21;16.01;15.00;11.93;0.81
65057;SPS30;51644;51.068;5.860;2023-02-25T01:48:35;2.88;2.77;2.22;1.46;11.77;11.74;11.60;10.89;8.69;0.80
65057;SPS30;51644;51.068;5.860;2023-02-25T01:49:41;2.19;2.10;1.68;1.10;8.86;8.84;8.73;8.19;6.53;0.80
65057;SPS30;51644;51.068;5.860;2023-02-25T01:50:47;2.85;2.74;2.21;1.47;11.88;11.86;11.72;11.03;8.85;0.79
65057;SPS30;51644;51.068;5.860;2023-02-25T01:51:48;3.18;3.07;2.48;1.66;13.35;13.32;13.17;12.41;9.97;0.79
65057;SPS30;51644;51.068;5.860;2023-02-25T01:52:51;2.63;2.53;2.04;1.35;10.90;10.88;10.75;10.12;8.11;0.79
65057;SPS30;51644;51.068;5.860;2023-02-25T01:53:54;2.81;2.71;2.20;1.49;11.98;11.95;11.82;11.16;9.00;0.78
65057;SPS30;51644;51.068;5.860;2023-02-25T01:54:55;2.94;2.84;2.32;1.60;12.86;12.84;12.70;12.03;9.75;0.77
65057;SPS30;51644;51.068;5.860;2023-02-25T01:55:56;2.77;2.67;2.19;1.52;12.20;12.18;12.06;11.43;9.28;0.76
65057;SPS30;51644;51.068;5.860;2023-02-25T01:56:56;2.85;2.76;2.27;1.57;12.65;12.63;12.50;11.86;9.64;0.75
65057;SPS30;51644;51.068;5.860;2023-02-25T01:57:57;2.50;2.41;1.99;1.39;11.18;11.15;11.05;10.49;8.55;0.75
65057;SPS30;51644;51.068;5.860;2023-02-25T01:58:58;3.05;2.95;2.41;1.66;13.38;13.36;13.22;12.52;10.16;0.77
65057;SPS30;51644;51.068;5.860;2023-02-25T01:59:57;2.69;2.59;2.11;1.44;11.59;11.57;11.44;10.82;8.75;0.77
65057;SPS30;51644;51.068;5.860;2023-02-25T02:00:56;2.54;2.44;1.98;1.33;10.69;10.67;10.55;9.94;7.99;0.78
65057;SPS30;51644;51.068;5.860;2023-02-25T02:01:54;3.00;2.88;2.29;1.48;11.98;11.95;11.80;11.05;8.77;0.80
65057;SPS30;51644;51.068;5.860;2023-02-25T02:02:54;2.91;2.79;2.21;1.40;11.33;11.30;11.15;10.40;8.20;0.81
65057;SPS30;51644;51.068;5.860;2023-02-25T02:03:57;2.51;2.40;1.88;1.17;9.45;9.43;9.30;8.63;6.75;0.83
65057;SPS30;51644;51.068;5.860;2023-02-25T02:04:55;2.81;2.69;2.10;1.29;10.43;10.40;10.25;9.48;7.39;0.84
65057;SPS30;51644;51.068;5.860;2023-02-25T02:05:56;2.92;2.80;2.18;1.35;10.88;10.85;10.69;9.90;7.72;0.83
65057;SPS30;51644;51.068;5.860;2023-02-25T02:07:03;2.72;2.61;2.06;1.30;10.53;10.50;10.36;9.65;7.60;0.81
65057;SPS30;51644;51.068;5.860;2023-02-25T02:08:04;2.06;1.98;1.56;0.99;8.01;7.99;7.88;7.35;5.80;0.80
65057;SPS30;51644;51.068;5.860;2023-02-25T02:09:04;3.13;3.00;2.36;1.48;11.96;11.93;11.77;10.94;8.60;0.80
65057;SPS30;51644;51.068;5.860;2023-02-25T02:10:06;2.61;2.50;1.96;1.23;9.91;9.88;9.74;9.05;7.09;0.81
65057;SPS30;51644;51.068;5.860;2023-02-25T02:11:06;3.25;3.12;2.44;1.52;12.29;12.26;12.08;11.21;8.78;0.82
65057;SPS30;51644;51.068;5.860;2023-02-25T02:12:05;3.64;3.49;2.75;1.72;13.92;13.88;13.69;12.73;9.99;0.81
65057;SPS30;51644;51.068;5.860;2023-02-25T02:13:04;3.41;3.27;2.58;1.63;13.19;13.15;12.98;12.09;9.52;0.81
65057;SPS30;51644;51.068;5.860;2023-02-25T02:14:03;3.56;3.42;2.68;1.67;13.47;13.44;13.25;12.30;9.63;0.82
65057;SPS30;51644;51.068;5.860;2023-02-25T02:15:06;2.45;2.35;1.82;1.11;8.96;8.94;8.80;8.13;6.31;0.82
65057;SPS30;51644;51.068;5.860;2023-02-25T02:17:22;2.87;2.75;2.14;1.31;10.57;10.54;10.38;9.60;7.47;0.83
65057;SPS30;51644;51.068;5.860;2023-02-25T02:18:25;3.39;3.24;2.50;1.49;12.08;12.05;11.86;10.91;8.40;0.84
65057;SPS30;51644;51.068;5.860;2023-02-25T02:23:16;2.80;2.68;2.07;1.24;10.00;9.98;9.82;9.03;6.96;0.86
65057;SPS30;51644;51.068;5.860;2023-02-25T02:32:32;3.66;3.49;2.64;1.50;12.15;12.11;11.89;10.81;8.14;0.88
65057;SPS30;51644;51.068;5.860;2023-02-25T02:35:13;2.13;2.04;1.54;0.89;7.17;7.15;7.03;6.40;4.84;0.88
65057;SPS30;51644;51.068;5.860;2023-02-25T02:36:34;4.02;3.83;2.91;1.66;13.48;13.44;13.21;12.02;9.09;0.88
65057;SPS30;51644;51.068;5.860;2023-02-25T02:41:30;3.14;3.00;2.31;1.38;11.16;11.13;10.95;10.07;7.75;0.85
65057;SPS30;51644;51.068;5.860;2023-02-25T02:43:52;2.83;2.71;2.11;1.30;10.49;10.47;10.31;9.55;7.44;0.83
65057;SPS30;51644;51.068;5.860;2023-02-25T02:45:03;2.61;2.50;1.98;1.25;10.09;10.07;9.93;9.25;7.29;0.83
65057;SPS30;51644;51.068;5.860;2023-02-25T02:47:44;3.49;3.34;2.60;1.60;12.93;12.90;12.71;11.76;9.16;0.84
65057;SPS30;51644;51.068;5.860;2023-02-25T02:48:55;2.79;2.67;2.07;1.25;10.09;10.06;9.91;9.13;7.06;0.85
65057;SPS30;51644;51.068;5.860;2023-02-25T02:50:04;3.62;3.46;2.68;1.61;13.05;13.01;12.81;11.81;9.13;0.85
65057;SPS30;51644;51.068;5.860;2023-02-25T02:51:10;3.64;3.48;2.70;1.64;13.24;13.20;13.00;12.00;9.29;0.84
65057;SPS30;51644;51.068;5.860;2023-02-25T02:52:24;3.64;3.48;2.70;1.64;13.27;13.23;13.03;12.03;9.33;0.83
65057;SPS30;51644;51.068;5.860;2023-02-25T02:53:28;2.82;2.70;2.10;1.28;10.37;10.34;10.19;9.41;7.32;0.83
65057;SPS30;51644;51.068;5.860;2023-02-25T02:54:34;3.37;3.23;2.52;1.55;12.54;12.51;12.33;11.41;8.89;0.83
65057;SPS30;51644;51.068;5.860;2023-02-25T02:55:42;3.13;2.99;2.34;1.44;11.65;11.62;11.45;10.60;8.27;0.84
65057;SPS30;51644;51.068;5.860;2023-02-25T02:56:48;3.22;3.08;2.41;1.48;11.97;11.94;11.76;10.89;8.49;0.83
65057;SPS30;51644;51.068;5.860;2023-02-25T02:57:57;3.43;3.29;2.59;1.63;13.13;13.10;12.92;12.01;9.43;0.82
65057;SPS30;51644;51.068;5.860;2023-02-25T03:00:07;2.95;2.84;2.26;1.46;11.76;11.73;11.58;10.83;8.60;0.80
65057;SPS30;51644;51.068;5.860;2023-02-25T03:00:52;2.67;2.57;2.05;1.33;10.73;10.71;10.57;9.90;7.88;0.80
65057;SPS30;51644;51.068;5.860;2023-02-25T03:01:59;3.11;2.99;2.36;1.50;12.07;12.04;11.88;11.07;8.73;0.82
65057;SPS30;51644;51.068;5.860;2023-02-25T03:03:11;3.22;3.09;2.42;1.51;12.19;12.16;11.99;11.13;8.72;0.82
65057;SPS30;51644;51.068;5.860;2023-02-25T03:04:16;2.50;2.39;1.88;1.18;9.55;9.53;9.40;8.74;6.86;0.81
65057;SPS30;51644;51.068;5.860;2023-02-25T03:05:20;2.12;2.04;1.61;1.02;8.26;8.24;8.13;7.58;5.98;0.81
65057;SPS30;51644;51.068;5.860;2023-02-25T03:06:26;3.31;3.18;2.52;1.61;13.01;12.98;12.81;11.95;9.45;0.80
65057;SPS30;51644;51.068;5.860;2023-02-25T03:07:30;2.26;2.17;1.72;1.09;8.83;8.81;8.69;8.10;6.40;0.81
65057;SPS30;51644;51.068;5.860;2023-02-25T03:08:44;2.35;2.26;1.78;1.12;9.06;9.04;8.91;8.30;6.53;0.81
65057;SPS30;51644;51.068;5.860;2023-02-25T03:10:55;3.17;3.04;2.41;1.53;12.35;12.32;12.15;11.33;8.94;0.80
65057;SPS30;51644;51.068;5.860;2023-02-25T03:11:53;3.10;2.98;2.37;1.53;12.36;12.33;12.17;11.39;9.04;0.80
65057;SPS30;51644;51.068;5.860;2023-02-25T03:12:52;2.79;2.68;2.13;1.38;11.10;11.07;10.93;10.22;8.11;0.80
65057;SPS30;51644;51.068;5.860;2023-02-25T03:13:52;2.67;2.57;2.05;1.32;10.67;10.65;10.52;9.84;7.81;0.80
65057;SPS30;51644;51.068;5.860;2023-02-25T03:14:51;3.70;3.56;2.82;1.80;14.52;14.49;14.30;13.34;10.55;0.79
65057;SPS30;51644;51.068;5.860;2023-02-25T03:15:50;3.64;3.49;2.75;1.74;14.02;13.98;13.79;12.84;10.10;0.80
65057;SPS30;51644;51.068;5.860;2023-02-25T03:16:55;3.18;3.05;2.40;1.50;12.14;12.11;11.94;11.10;8.71;0.82
65057;SPS30;51644;51.068;5.860;2023-02-25T03:18:04;3.42;3.28;2.57;1.61;13.00;12.96;12.78;11.88;9.31;0.81
65057;SPS30;51644;51.068;5.860;2023-02-25T03:19:43;2.81;2.69;2.11;1.33;10.70;10.68;10.53;9.79;7.68;0.80
65057;SPS30;51644;51.068;5.860;2023-02-25T03:20:46;3.14;3.02;2.41;1.56;12.57;12.55;12.39;11.60;9.21;0.77
65057;SPS30;51644;51.068;5.860;2023-02-25T03:21:54;3.06;2.94;2.34;1.50;12.14;12.11;11.95;11.17;8.86;0.77
65057;SPS30;51644;51.068;5.860;2023-02-25T03:23:07;2.61;2.51;2.00;1.29;10.44;10.41;10.28;9.62;7.64;0.77
65057;SPS30;51644;51.068;5.860;2023-02-25T03:24:16;2.92;2.80;2.21;1.39;11.24;11.21;11.06;10.29;8.10;0.79
65057;SPS30;51644;51.068;5.860;2023-02-25T03:25:22;2.90;2.78;2.20;1.40;11.32;11.29;11.14;10.39;8.21;0.79
65057;SPS30;51644;51.068;5.860;2023-02-25T03:26:27;2.83;2.71;2.16;1.39;11.23;11.21;11.06;10.35;8.21;0.79
65057;SPS30;51644;51.068;5.860;2023-02-25T03:27:36;2.96;2.85;2.27;1.47;11.83;11.80;11.65;10.90;8.66;0.80
65057;SPS30;51644;51.068;5.860;2023-02-25T03:28:39;3.19;3.06;2.45;1.59;12.87;12.84;12.68;11.88;9.46;0.80
65057;SPS30;51644;51.068;5.860;2023-02-25T03:29:43;2.99;2.88;2.32;1.53;12.38;12.35;12.21;11.48;9.19;0.79
65057;SPS30;51644;51.068;5.860;2023-02-25T03:30:52;2.85;2.75;2.22;1.48;11.94;11.92;11.78;11.10;8.91;0.79
65057;SPS30;51644;51.068;5.860;2023-02-25T03:32:02;2.98;2.86;2.30;1.51;12.21;12.18;12.04;11.31;9.04;0.79
65057;SPS30;51644;51.068;5.860;2023-02-25T03:34:14;2.64;2.55;2.06;1.38;11.11;11.09;10.96;10.33;8.30;0.78
65057;SPS30;51644;51.068;5.860;2023-02-25T03:35:19;3.47;3.35;2.76;1.91;15.42;15.39;15.23;14.46;11.76;0.75
65057;SPS30;51644;51.068;5.860;2023-02-25T03:36:32;3.09;2.99;2.44;1.68;13.51;13.49;13.35;12.64;10.25;0.77
65057;SPS30;51644;51.068;5.860;2023-02-25T03:37:36;3.69;3.55;2.88;1.94;15.64;15.61;15.43;14.56;11.73;0.76
65057;SPS30;51644;51.068;5.860;2023-02-25T03:38:39;3.87;3.73;3.02;2.04;16.41;16.38;16.20;15.28;12.30;0.74
65057;SPS30;51644;51.068;5.860;2023-02-25T03:39:45;3.20;3.09;2.51;1.69;13.64;13.61;13.46;12.71;10.24;0.74
65057;SPS30;51644;51.068;5.860;2023-02-25T03:40:49;3.16;3.05;2.48;1.68;13.55;13.52;13.37;12.63;10.20;0.75
65057;SPS30;51644;51.068;5.860;2023-02-25T03:41:52;2.55;2.46;2.00;1.36;10.92;10.90;10.78;10.18;8.22;0.74
65057;SPS30;51644;51.068;5.860;2023-02-25T03:43:00;2.87;2.77;2.28;1.58;12.74;12.72;12.59;11.95;9.72;0.73
65057;SPS30;51644;51.068;5.860;2023-02-25T03:44:06;2.12;2.05;1.70;1.20;9.66;9.64;9.55;9.09;7.43;0.73
65057;SPS30;51644;51.068;5.860;2023-02-25T03:45:14;2.73;2.63;2.14;1.45;11.72;11.69;11.57;10.93;8.82;0.76
65057;SPS30;51644;51.068;5.860;2023-02-25T03:46:13;3.59;3.45;2.78;1.83;14.79;14.76;14.58;13.71;10.97;0.77
65057;SPS30;51644;51.068;5.860;2023-02-25T03:47:16;3.62;3.47;2.76;1.77;14.29;14.26;14.07;13.15;10.42;0.79
65057;SPS30;51644;51.068;5.860;2023-02-25T03:48:18;3.24;3.11;2.48;1.61;12.99;12.96;12.80;11.99;9.53;0.78
65057;SPS30;51644;51.068;5.860;2023-02-25T03:49:22;2.84;2.73;2.18;1.42;11.46;11.44;11.29;10.58;8.43;0.77
65057;SPS30;51644;51.068;5.860;2023-02-25T03:50:33;3.19;3.07;2.49;1.67;13.44;13.41;13.26;12.50;10.05;0.76
65057;SPS30;51644;51.068;5.860;2023-02-25T03:51:42;3.34;3.21;2.58;1.69;13.63;13.60;13.44;12.61;10.07;0.78
65057;SPS30;51644;51.068;5.860;2023-02-25T03:52:46;3.07;2.96;2.38;1.58;12.73;12.70;12.55;11.81;9.46;0.77
65057;SPS30;51644;51.068;5.860;2023-02-25T03:54:00;3.59;3.46;2.81;1.89;15.25;15.22;15.05;14.20;11.44;0.76
65057;SPS30;51644;51.068;5.860;2023-02-25T03:55:03;3.23;3.12;2.54;1.72;13.83;13.80;13.65;12.89;10.40;0.76
65057;SPS30;51644;51.068;5.860;2023-02-25T03:56:06;2.85;2.75;2.27;1.59;12.78;12.76;12.64;12.01;9.79;0.73
65057;SPS30;51644;51.068;5.860;2023-02-25T03:57:07;2.70;2.62;2.18;1.55;12.46;12.44;12.33;11.75;9.63;0.73
65057;SPS30;51644;51.068;5.860;2023-02-25T03:58:07;2.56;2.48;2.06;1.46;11.72;11.70;11.59;11.03;9.03;0.73
65057;SPS30;51644;51.068;5.860;2023-02-25T03:59:06;2.42;2.34;1.95;1.38;11.12;11.10;11.00;10.48;8.58;0.73
65057;SPS30;51644;51.068;5.860;2023-02-25T04:00:06;2.51;2.43;2.02;1.43;11.53;11.51;11.40;10.86;8.89;0.74
65057;SPS30;51644;51.068;5.860;2023-02-25T04:01:17;2.35;2.27;1.89;1.33;10.72;10.71;10.61;10.10;8.26;0.74
65057;SPS30;51644;51.068;5.860;2023-02-25T04:02:28;3.09;2.99;2.48;1.76;14.19;14.17;14.04;13.38;10.96;0.75
65057;SPS30;51644;51.068;5.860;2023-02-25T04:03:30;2.93;2.83;2.34;1.64;13.18;13.16;13.03;12.39;10.10;0.76
65057;SPS30;51644;51.068;5.860;2023-02-25T04:04:29;3.07;2.97;2.45;1.71;13.78;13.76;13.62;12.94;10.55;0.76
65057;SPS30;51644;51.068;5.860;2023-02-25T04:05:28;3.08;2.98;2.47;1.74;14.04;14.01;13.88;13.22;10.81;0.75
65057;SPS30;51644;51.068;5.860;2023-02-25T04:06:30;2.40;2.32;1.93;1.36;10.95;10.93;10.83;10.31;8.43;0.75
65057;SPS30;51644;51.068;5.860;2023-02-25T04:07:29;3.06;2.96;2.47;1.76;14.15;14.13;14.00;13.35;10.95;0.75
65057;SPS30;51644;51.068;5.860;2023-02-25T04:08:28;3.58;3.47;2.88;2.05;16.46;16.44;16.28;15.52;12.71;0.75
65057;SPS30;51644;51.068;5.860;2023-02-25T04:09:27;3.42;3.30;2.72;1.90;15.29;15.26;15.11;14.35;11.69;0.76
65057;SPS30;51644;51.068;5.860;2023-02-25T04:10:25;2.53;2.45;2.03;1.44;11.56;11.54;11.43;10.88;8.90;0.74
65057;SPS30;51644;51.068;5.860;2023-02-25T04:11:25;2.88;2.78;2.31;1.63;13.11;13.09;12.97;12.35;10.09;0.75
65057;SPS30;51644;51.068;5.860;2023-02-25T04:12:24;2.81;2.72;2.26;1.60;12.86;12.84;12.72;12.12;9.92;0.75
65057;SPS30;51644;51.068;5.860;2023-02-25T04:13:22;3.56;3.45;2.89;2.08;16.72;16.70;16.55;15.81;13.00;0.74
65057;SPS30;51644;51.068;5.860;2023-02-25T04:14:22;3.30;3.19;2.64;1.86;14.98;14.96;14.81;14.10;11.52;0.75
65057;SPS30;51644;51.068;5.860;2023-02-25T04:15:21;3.68;3.55;2.91;2.00;16.13;16.10;15.93;15.09;12.24;0.76
65057;SPS30;51644;51.068;5.860;2023-02-25T04:16:20;3.34;3.22;2.62;1.78;14.35;14.32;14.17;13.39;10.81;0.77
65057;SPS30;51644;51.068;5.860;2023-02-25T04:17:36;3.14;3.03;2.47;1.69;13.58;13.55;13.41;12.68;10.26;0.77
65057;SPS30;51644;51.068;5.860;2023-02-25T04:18:34;3.00;2.89;2.35;1.59;12.82;12.79;12.65;11.95;9.64;0.77
65057;SPS30;51644;51.068;5.860;2023-02-25T04:19:37;3.06;2.95;2.40;1.63;13.11;13.08;12.94;12.22;9.86;0.77